Time;durP1;ratioP1;P1;durP2;ratioP2;P2;SDS_P1;SDS_P2;PMS_P1;PMS_P2;Temp;Humidity;BMP_temperature;BMP_pressure;BME280_temperature;BME280_humidity;BME280_pressure;Samples;Min_cycle;Max_cycle;Signal;HPM_P1;HPM_P2
2022/08/27 00:00:14;;;;;;;9.20;5.40;;;24.20;76.00;;;;;;5051197;28;20083;-76
2022/08/27 00:02:44;;;;;;;15.18;5.60;;;24.20;75.90;;;;;;5031978;28;20025;-76
2022/08/27 00:05:12;;;;;;;9.95;5.50;;;24.20;76.10;;;;;;5050720;28;20033;-76
2022/08/27 00:07:41;;;;;;;13.77;5.70;;;24.20;75.90;;;;;;5006620;28;20079;-75
2022/08/27 00:10:09;;;;;;;11.57;5.47;;;24.10;76.00;;;;;;5049084;28;20036;-76
2022/08/27 00:12:36;;;;;;;7.82;4.65;;;24.10;76.00;;;;;;5033007;28;20024;-76
2022/08/27 00:15:03;;;;;;;8.55;5.25;;;24.20;75.80;;;;;;5031042;28;20086;-76
2022/08/27 00:17:29;;;;;;;12.02;5.05;;;24.10;75.90;;;;;;5024937;28;20025;-75
2022/08/27 00:19:55;;;;;;;11.70;5.15;;;24.20;76.00;;;;;;5034083;28;20107;-76
2022/08/27 00:22:21;;;;;;;11.40;5.30;;;24.10;75.90;;;;;;5048194;28;20090;-75
2022/08/27 00:24:46;;;;;;;11.98;5.47;;;24.10;75.90;;;;;;5050985;28;20017;-75
2022/08/27 00:27:12;;;;;;;12.40;5.55;;;24.10;76.00;;;;;;5051758;28;20024;-75
2022/08/27 00:29:38;;;;;;;11.95;5.75;;;24.10;76.00;;;;;;5033131;28;20369;-75
2022/08/27 00:32:04;;;;;;;10.65;5.22;;;24.10;76.00;;;;;;5051499;28;20082;-74
2022/08/27 00:34:30;;;;;;;9.25;4.95;;;24.10;76.10;;;;;;5024180;28;20037;-75
2022/08/27 00:36:56;;;;;;;13.43;5.30;;;24.10;76.20;;;;;;5042820;28;20021;-74
2022/08/27 00:39:22;;;;;;;28.23;17.65;;;24.10;76.20;;;;;;5040127;28;20485;-74
2022/08/27 00:41:48;;;;;;;19.40;13.73;;;24.10;76.30;;;;;;5021950;28;20070;-82
2022/08/27 00:44:14;;;;;;;32.88;12.45;;;24.20;76.70;;;;;;5047235;28;20514;-81
2022/08/27 00:46:53;;;;;;;23.42;12.40;;;24.20;76.20;;;;;;5048056;28;20056;-81
2022/08/27 00:49:52;;;;;;;21.92;12.27;;;24.20;75.80;;;;;;5042834;28;20091;-81
2022/08/27 00:52:27;;;;;;;22.67;11.63;;;24.30;75.60;;;;;;5030274;28;20056;-81
2022/08/27 00:54:59;;;;;;;20.38;11.55;;;24.30;75.40;;;;;;5021129;28;20598;-81
2022/08/27 00:57:26;;;;;;;20.27;10.50;;;24.30;75.50;;;;;;5022103;28;20089;-81
2022/08/27 00:59:52;;;;;;;18.75;10.60;;;24.30;75.30;;;;;;5048242;28;20052;-82
2022/08/27 01:02:18;;;;;;;17.58;9.48;;;24.30;75.30;;;;;;5025292;28;20025;-82
2022/08/27 01:04:47;;;;;;;18.23;8.90;;;24.30;75.20;;;;;;5029398;28;20182;-81
2022/08/27 01:07:13;;;;;;;17.02;9.27;;;24.40;75.10;;;;;;5045395;28;20032;-79
2022/08/27 01:09:41;;;;;;;16.80;9.35;;;24.30;75.10;;;;;;5028044;28;20029;-80
2022/08/27 01:12:10;;;;;;;14.55;7.57;;;24.40;74.80;;;;;;5049288;28;20084;-80
2022/08/27 01:14:38;;;;;;;16.05;8.88;;;24.40;74.90;;;;;;5044167;28;20028;-80
2022/08/27 01:17:08;;;;;;;19.65;7.32;;;24.40;75.30;;;;;;5049990;28;20086;-80
2022/08/27 01:19:39;;;;;;;18.88;7.15;;;24.40;75.00;;;;;;5050779;28;20028;-80
2022/08/27 01:22:14;;;;;;;16.48;8.10;;;24.40;75.20;;;;;;5047134;28;20032;-80
2022/08/27 01:24:47;;;;;;;13.77;7.70;;;24.40;75.20;;;;;;5028952;28;20033;-80
2022/08/27 01:27:20;;;;;;;12.45;7.22;;;24.40;74.90;;;;;;5047914;28;20086;-80
2022/08/27 01:29:46;;;;;;;13.52;6.85;;;24.40;74.90;;;;;;5035704;28;20401;-80
2022/08/27 01:32:17;;;;;;;14.32;7.00;;;24.40;75.00;;;;;;5019484;28;20029;-80
2022/08/27 01:34:43;;;;;;;16.30;6.97;;;24.40;75.10;;;;;;5033047;28;20028;-80
2022/08/27 01:37:09;;;;;;;12.23;6.80;;;24.40;75.00;;;;;;5042943;28;20029;-81
2022/08/27 01:39:38;;;;;;;12.27;6.63;;;24.40;74.60;;;;;;5027783;28;20047;-81
2022/08/27 01:42:16;;;;;;;10.63;6.20;;;24.40;74.90;;;;;;5040605;28;20104;-81
2022/08/27 01:44:54;;;;;;;14.85;6.75;;;24.50;75.10;;;;;;5041079;28;20032;-81
2022/08/27 01:47:22;;;;;;;15.57;6.90;;;24.40;75.00;;;;;;5049133;28;20040;-81
2022/08/27 01:49:48;;;;;;;13.30;6.40;;;24.50;75.00;;;;;;5050352;28;20020;-81
2022/08/27 01:52:17;;;;;;;10.57;5.90;;;24.40;74.80;;;;;;5040402;28;20025;-80
2022/08/27 01:54:43;;;;;;;12.75;7.13;;;24.50;75.20;;;;;;5044299;28;20479;-80
2022/08/27 01:57:09;;;;;;;9.15;5.63;;;24.50;74.80;;;;;;5030639;28;20113;-80
2022/08/27 01:59:35;;;;;;;11.90;5.82;;;24.50;74.80;;;;;;5047721;28;20284;-80
2022/08/27 02:02:01;;;;;;;16.55;6.03;;;24.50;74.70;;;;;;5042316;28;20076;-80
2022/08/27 02:04:29;;;;;;;10.88;6.28;;;24.50;74.80;;;;;;5030762;28;20021;-80
2022/08/27 02:06:55;;;;;;;13.05;6.47;;;24.40;74.60;;;;;;5050520;28;20024;-80
2022/08/27 02:09:21;;;;;;;12.27;6.47;;;24.50;74.60;;;;;;5049928;28;20083;-80
2022/08/27 02:11:47;;;;;;;10.20;5.60;;;24.40;74.70;;;;;;5025243;28;20021;-80
2022/08/27 02:14:13;;;;;;;10.77;6.35;;;24.50;74.80;;;;;;5042982;28;20029;-79
2022/08/27 02:16:40;;;;;;;12.98;6.40;;;24.50;74.90;;;;;;5044867;28;20176;-80
2022/08/27 02:19:06;;;;;;;11.63;6.70;;;24.50;74.90;;;;;;5029646;28;20060;-81
2022/08/27 02:21:32;;;;;;;12.57;6.45;;;24.50;74.80;;;;;;5047145;28;20425;-80
2022/08/27 02:23:58;;;;;;;14.38;6.40;;;24.40;74.80;;;;;;5051030;28;20487;-79
2022/08/27 02:26:26;;;;;;;14.18;6.72;;;24.40;74.90;;;;;;5005215;28;20109;-79
2022/08/27 02:28:53;;;;;;;17.48;7.03;;;24.40;74.90;;;;;;5046188;28;20032;-79
2022/08/27 02:31:19;;;;;;;17.92;6.82;;;24.40;75.00;;;;;;5046629;28;20501;-80
2022/08/27 02:33:44;;;;;;;14.52;6.18;;;24.40;75.20;;;;;;5050904;28;20025;-80
2022/08/27 02:36:11;;;;;;;11.40;6.53;;;24.40;75.20;;;;;;5050626;28;20040;-80
2022/08/27 02:38:37;;;;;;;13.68;6.97;;;24.40;75.10;;;;;;5053401;28;20025;-79
2022/08/27 02:41:02;;;;;;;15.52;6.72;;;24.40;74.90;;;;;;5031315;28;20443;-81
2022/08/27 02:43:28;;;;;;;20.42;7.65;;;24.40;75.00;;;;;;5025592;28;20040;-81
2022/08/27 02:45:54;;;;;;;14.45;7.18;;;24.40;75.10;;;;;;5039364;28;20384;-81
2022/08/27 02:48:20;;;;;;;16.10;7.30;;;24.40;75.10;;;;;;5044345;28;20036;-80
2022/08/27 02:50:46;;;;;;;14.00;6.78;;;24.40;75.40;;;;;;5002508;28;20021;-80
2022/08/27 02:53:12;;;;;;;14.75;7.00;;;24.40;75.00;;;;;;5052997;28;20025;-80
2022/08/27 02:55:38;;;;;;;16.83;7.25;;;24.50;75.00;;;;;;5033456;28;20488;-81
2022/08/27 02:58:04;;;;;;;13.73;6.90;;;24.40;74.80;;;;;;5045027;28;20116;-80
2022/08/27 03:00:30;;;;;;;17.00;7.55;;;24.40;75.00;;;;;;5049772;28;20021;-80
2022/08/27 03:02:56;;;;;;;12.40;7.00;;;24.50;75.30;;;;;;5049794;28;20477;-79
2022/08/27 03:05:23;;;;;;;14.23;6.50;;;24.40;75.30;;;;;;5050860;28;20018;-80
2022/08/27 03:07:49;;;;;;;13.23;7.10;;;24.40;74.80;;;;;;5053883;28;20040;-80
2022/08/27 03:10:17;;;;;;;10.35;6.38;;;24.40;74.80;;;;;;5041958;28;20056;-80
2022/08/27 03:12:43;;;;;;;14.52;6.45;;;24.40;74.80;;;;;;5038072;28;20535;-79
2022/08/27 03:15:12;;;;;;;15.73;6.97;;;24.50;75.20;;;;;;5023890;28;20040;-80
2022/08/27 03:20:24;;;;;;;14.57;7.28;;;24.50;74.90;;;;;;5051554;28;20386;-80
2022/08/27 03:22:50;;;;;;;15.13;6.78;;;24.50;74.70;;;;;;5047769;28;20059;-80
2022/08/27 03:25:17;;;;;;;15.07;7.95;;;24.50;74.60;;;;;;5031124;28;20021;-81
2022/08/27 03:27:43;;;;;;;15.25;7.82;;;24.50;74.70;;;;;;5034330;28;20468;-80
2022/08/27 03:30:14;;;;;;;16.60;8.65;;;24.50;74.60;;;;;;5050926;28;20056;-80
2022/08/27 03:32:41;;;;;;;14.05;7.82;;;24.50;74.80;;;;;;5023656;28;20036;-80
2022/08/27 03:35:08;;;;;;;15.93;8.13;;;24.50;74.90;;;;;;5033327;28;20029;-80
2022/08/27 03:37:34;;;;;;;14.75;8.18;;;24.40;75.30;;;;;;5040027;28;20029;-80
2022/08/27 03:40:00;;;;;;;16.70;9.18;;;24.50;75.00;;;;;;5041372;28;20370;-80
2022/08/27 03:42:26;;;;;;;16.45;9.43;;;24.40;75.10;;;;;;5028435;28;20423;-80
2022/08/27 03:44:52;;;;;;;19.10;9.60;;;24.40;75.30;;;;;;5014551;28;20036;-81
2022/08/27 03:47:17;;;;;;;17.75;8.35;;;24.40;75.10;;;;;;5018906;28;20059;-81
2022/08/27 03:49:43;;;;;;;13.50;9.00;;;24.40;75.10;;;;;;5034047;28;20025;-81
2022/08/27 03:52:10;;;;;;;16.23;10.30;;;24.40;75.10;;;;;;5034244;28;20301;-81
2022/08/27 03:54:37;;;;;;;20.38;9.75;;;24.40;75.30;;;;;;5040123;28;20033;-79
2022/08/27 03:57:03;;;;;;;17.88;9.50;;;24.40;75.50;;;;;;5031865;28;20037;-77
2022/08/27 03:59:29;;;;;;;16.70;9.93;;;24.40;75.30;;;;;;5046717;28;20061;-79
2022/08/27 04:01:55;;;;;;;18.67;10.52;;;24.40;75.20;;;;;;5048300;28;20472;-79
2022/08/27 04:04:25;;;;;;;18.15;9.10;;;24.40;75.30;;;;;;5052144;28;20032;-80
2022/08/27 04:06:51;;;;;;;22.38;10.10;;;24.40;75.10;;;;;;5048105;28;20021;-80
2022/08/27 04:09:17;;;;;;;16.25;9.52;;;24.40;75.40;;;;;;5042409;28;20026;-81
2022/08/27 04:11:43;;;;;;;14.43;8.57;;;24.40;75.30;;;;;;5008521;28;20040;-80
2022/08/27 04:14:08;;;;;;;16.45;9.20;;;24.40;75.30;;;;;;5047603;28;20472;-81
2022/08/27 04:16:35;;;;;;;14.65;8.55;;;24.40;75.40;;;;;;5046952;28;20084;-79
2022/08/27 04:19:02;;;;;;;18.08;9.07;;;24.40;75.40;;;;;;5029636;28;20036;-80
2022/08/27 04:21:28;;;;;;;16.92;9.50;;;24.40;75.20;;;;;;5023704;28;20078;-80
2022/08/27 04:23:57;;;;;;;13.45;8.27;;;24.40;75.30;;;;;;5030986;28;20495;-80
2022/08/27 04:26:26;;;;;;;17.15;9.43;;;24.40;75.10;;;;;;5050813;28;20021;-81
2022/08/27 04:28:52;;;;;;;16.65;9.18;;;24.40;75.20;;;;;;5026694;28;20441;-81
2022/08/27 04:31:19;;;;;;;12.82;8.05;;;24.40;75.30;;;;;;5048986;28;20053;-81
2022/08/27 04:33:45;;;;;;;17.65;9.38;;;24.40;75.30;;;;;;5051634;28;20380;-82
2022/08/27 04:36:11;;;;;;;23.65;10.73;;;24.40;75.30;;;;;;5030562;28;20120;-82
2022/08/27 04:38:37;;;;;;;17.63;9.40;;;24.40;75.30;;;;;;5050072;28;20029;-82
2022/08/27 04:41:26;;;;;;;21.48;10.55;;;24.40;75.40;;;;;;5026284;28;20128;-82
2022/08/27 04:43:57;;;;;;;18.48;9.95;;;24.40;75.50;;;;;;5022296;28;20021;-83
2022/08/27 04:46:27;;;;;;;14.57;8.52;;;24.40;75.70;;;;;;5031674;28;20017;-83
2022/08/27 04:48:56;;;;;;;15.23;8.93;;;24.40;75.40;;;;;;5030247;28;20431;-82
2022/08/27 04:51:22;;;;;;;13.77;7.57;;;24.40;75.90;;;;;;5050692;28;20039;-82
2022/08/27 04:53:48;;;;;;;20.13;8.77;;;24.40;75.20;;;;;;5044027;28;20365;-82
2022/08/27 04:56:17;;;;;;;15.95;9.25;;;24.40;75.30;;;;;;5025451;28;20041;-82
2022/08/27 04:58:43;;;;;;;16.35;8.88;;;24.40;75.30;;;;;;5024951;28;20107;-81
2022/08/27 05:01:18;;;;;;;18.08;8.75;;;24.40;75.20;;;;;;5049759;28;20021;-81
2022/08/27 05:03:44;;;;;;;27.48;9.15;;;24.50;75.60;;;;;;5034420;28;20025;-81
2022/08/27 05:06:11;;;;;;;15.80;9.52;;;24.40;75.10;;;;;;5039156;28;20083;-81
2022/08/27 05:08:38;;;;;;;14.30;8.77;;;24.40;75.10;;;;;;5047854;28;20480;-80
2022/08/27 05:11:08;;;;;;;14.10;8.93;;;24.40;75.20;;;;;;5052696;28;20435;-80
2022/08/27 05:13:34;;;;;;;;;;;24.40;75.40;;;;;;5048948;28;20029;-80
2022/08/27 05:16:03;;;;;;;16.70;9.50;;;24.40;75.50;;;;;;5045740;28;19919;-81
2022/08/27 05:18:29;;;;;;;15.82;8.98;;;24.40;75.40;;;;;;5044545;28;20036;-80
2022/08/27 05:20:56;;;;;;;15.88;9.18;;;24.40;75.20;;;;;;5025661;28;20112;-80
2022/08/27 05:23:22;;;;;;;13.35;8.98;;;24.40;75.20;;;;;;5048935;28;20025;-80
2022/08/27 05:25:49;;;;;;;15.88;8.80;;;24.40;75.40;;;;;;5050591;28;20017;-80
2022/08/27 05:28:20;;;;;;;15.48;8.73;;;24.30;75.60;;;;;;5050028;28;20025;-82
2022/08/27 05:30:48;;;;;;;13.70;8.32;;;24.40;75.40;;;;;;5049845;28;20480;-79
2022/08/27 05:33:24;;;;;;;14.75;9.18;;;24.40;75.20;;;;;;5016917;28;20494;-79
2022/08/27 05:35:55;;;;;;;16.50;8.13;;;24.40;75.40;;;;;;5031381;28;20128;-79
2022/08/27 05:38:23;;;;;;;13.07;8.55;;;24.30;75.20;;;;;;5042127;28;20476;-79
2022/08/27 05:40:50;;;;;;;12.77;8.18;;;24.30;75.20;;;;;;5044506;28;20366;-79
2022/08/27 05:43:17;;;;;;;16.17;8.23;;;24.30;75.30;;;;;;5029941;28;20032;-79
2022/08/27 05:45:47;;;;;;;12.10;7.65;;;24.40;75.30;;;;;;5049991;28;20099;-80
2022/08/27 05:48:14;;;;;;;11.13;7.68;;;24.40;75.20;;;;;;5022517;28;20021;-80
2022/08/27 05:50:42;;;;;;;14.32;7.82;;;24.40;75.40;;;;;;5031112;28;20059;-79
2022/08/27 05:53:09;;;;;;;14.75;8.07;;;24.30;75.40;;;;;;5048386;28;20430;-80
2022/08/27 05:55:41;;;;;;;11.45;7.72;;;24.30;75.30;;;;;;5043622;28;20389;-80
2022/08/27 06:01:03;;;;;;;10.32;7.22;;;24.30;75.20;;;;;;5040135;28;20535;-79
2022/08/27 06:01:03;;;;;;;11.60;7.57;;;24.30;75.10;;;;;;5043391;28;20048;-80
2022/08/27 06:03:30;;;;;;;11.00;7.13;;;24.30;75.20;;;;;;5029432;28;20488;-81
2022/08/27 06:06:05;;;;;;;11.98;8.10;;;24.40;75.50;;;;;;4996430;28;20026;-74
2022/08/27 06:08:31;;;;;;;14.82;8.70;;;24.30;75.60;;;;;;5008519;28;20040;-82
2022/08/27 06:11:00;;;;;;;12.05;7.43;;;24.30;76.20;;;;;;5044278;28;20025;-83
2022/08/27 06:13:27;;;;;;;13.07;8.13;;;24.20;76.20;;;;;;5032819;28;20037;-83
2022/08/27 06:16:12;;;;;;;14.25;7.60;;;24.20;76.70;;;;;;5047069;28;20112;-85
2022/08/27 06:18:39;;;;;;;15.27;8.20;;;24.20;76.70;;;;;;5054253;28;20626;-84
2022/08/27 06:21:05;;;;;;;15.30;9.13;;;24.20;76.70;;;;;;5028504;28;20388;-84
2022/08/27 06:23:32;;;;;;;15.07;9.77;;;24.20;76.70;;;;;;5003305;28;20033;-84
2022/08/27 06:25:58;;;;;;;21.05;9.40;;;24.20;76.90;;;;;;5049685;28;20025;-82
2022/08/27 06:28:30;;;;;;;21.67;9.95;;;24.20;78.30;;;;;;5049402;28;20023;-81
2022/08/27 06:31:12;;;;;;;17.75;9.70;;;24.20;79.00;;;;;;5046005;28;20018;-81
2022/08/27 06:33:39;;;;;;;13.18;8.63;;;24.20;77.90;;;;;;5043321;28;20098;-74
2022/08/27 06:36:07;;;;;;;15.20;8.95;;;24.20;77.80;;;;;;5045755;28;20377;-74
2022/08/27 06:38:34;;;;;;;16.52;7.68;;;24.20;77.70;;;;;;5046469;28;20032;-74
2022/08/27 06:41:03;;;;;;;17.40;8.15;;;24.20;77.40;;;;;;5051982;28;20457;-75
2022/08/27 06:43:29;;;;;;;;;;;24.20;77.20;;;;;;5039441;28;20017;-75
2022/08/27 06:45:55;;;;;;;11.70;7.30;;;24.10;77.30;;;;;;5017124;28;19915;-75
2022/08/27 06:48:21;;;;;;;21.27;7.53;;;24.20;77.20;;;;;;5038641;28;20026;-73
2022/08/27 06:50:47;;;;;;;17.52;7.43;;;24.20;77.70;;;;;;5042609;28;20025;-73
2022/08/27 06:53:13;;;;;;;20.65;7.63;;;24.20;77.50;;;;;;5050866;28;20408;-72
2022/08/27 06:55:41;;;;;;;16.00;6.88;;;24.20;77.60;;;;;;5054447;22;20362;-72
2022/08/27 06:58:07;;;;;;;15.35;7.22;;;24.20;77.40;;;;;;5010618;28;20029;-72
2022/08/27 07:00:33;;;;;;;17.20;12.57;;;24.20;77.80;;;;;;5031929;28;20773;-73
2022/08/27 07:03:00;;;;;;;17.35;12.57;;;24.20;77.30;;;;;;5004058;28;20099;-72
2022/08/27 07:05:26;;;;;;;21.02;11.70;;;24.10;77.30;;;;;;5014117;28;20068;-72
2022/08/27 07:07:52;;;;;;;13.57;8.20;;;24.10;77.50;;;;;;5010973;28;20501;-73
2022/08/27 07:10:18;;;;;;;15.68;7.38;;;24.10;77.90;;;;;;5007324;28;20023;-72
2022/08/27 07:12:44;;;;;;;15.57;6.80;;;24.10;77.70;;;;;;5014233;28;20030;-72
2022/08/27 07:15:11;;;;;;;10.73;5.60;;;24.00;77.70;;;;;;5014386;28;20040;-71
2022/08/27 07:17:39;;;;;;;12.05;5.30;;;24.00;77.60;;;;;;4980933;28;20415;-74
2022/08/27 07:20:06;;;;;;;9.60;5.18;;;24.00;77.60;;;;;;5013716;28;20022;-74
2022/08/27 07:22:32;;;;;;;9.55;5.72;;;24.00;77.70;;;;;;4995839;28;20375;-74
2022/08/27 07:24:58;;;;;;;9.68;5.30;;;24.00;77.80;;;;;;5014163;28;20106;-74
2022/08/27 07:27:24;;;;;;;8.63;5.50;;;23.90;77.80;;;;;;5014090;28;20359;-73
2022/08/27 07:29:50;;;;;;;9.23;5.10;;;23.90;77.70;;;;;;5013893;28;20033;-73
2022/08/27 07:32:16;;;;;;;8.80;5.05;;;23.90;77.70;;;;;;4996282;28;20124;-73
2022/08/27 07:34:42;;;;;;;9.63;5.35;;;23.90;77.80;;;;;;5013990;28;20056;-73
2022/08/27 07:37:08;;;;;;;8.68;5.50;;;24.00;77.70;;;;;;4996623;28;20034;-73
2022/08/27 07:39:34;;;;;;;8.80;5.50;;;23.90;77.90;;;;;;4996497;28;20505;-72
2022/08/27 07:44:44;;;;;;;9.88;5.72;;;24.00;77.80;;;;;;5014005;28;20026;-73
2022/08/27 07:47:10;;;;;;;10.60;5.95;;;23.90;78.10;;;;;;4996896;28;20072;-72
2022/08/27 07:49:36;;;;;;;9.80;5.65;;;23.90;77.90;;;;;;5013797;28;20033;-73
2022/08/27 07:52:03;;;;;;;9.18;5.57;;;23.90;78.20;;;;;;4996139;28;20037;-73
2022/08/27 07:54:28;;;;;;;9.45;5.88;;;23.90;78.00;;;;;;5013549;28;20044;-74
2022/08/27 07:56:54;;;;;;;11.13;6.22;;;23.90;78.00;;;;;;5013660;28;20104;-74
2022/08/27 07:59:20;;;;;;;10.90;6.13;;;23.90;78.10;;;;;;5013491;28;20112;-74
2022/08/27 08:01:47;;;;;;;10.30;5.88;;;23.90;78.00;;;;;;4996124;28;20481;-73
2022/08/27 08:04:14;;;;;;;13.75;6.68;;;23.90;78.20;;;;;;4995967;28;20389;-74
2022/08/27 08:06:40;;;;;;;11.77;6.45;;;23.90;78.10;;;;;;4995991;28;20117;-73
2022/08/27 08:09:06;;;;;;;8.35;5.93;;;23.90;78.20;;;;;;5013247;28;20565;-73
2022/08/27 08:11:33;;;;;;;11.85;7.15;;;23.90;78.20;;;;;;4996026;28;20038;-74
2022/08/27 08:14:00;;;;;;;11.82;6.82;;;23.90;78.10;;;;;;4996048;28;20033;-74
2022/08/27 08:16:26;;;;;;;13.40;6.18;;;24.00;78.00;;;;;;5013293;28;20030;-73
2022/08/27 08:18:52;;;;;;;11.50;6.32;;;24.00;78.10;;;;;;5013088;28;20026;-73
2022/08/27 08:21:18;;;;;;;9.95;5.75;;;24.00;78.20;;;;;;4995708;28;20038;-74
2022/08/27 08:23:44;;;;;;;12.15;6.18;;;24.00;78.00;;;;;;4995557;28;20029;-74
2022/08/27 08:26:11;;;;;;;13.75;6.45;;;24.00;77.90;;;;;;5013136;28;20072;-74
2022/08/27 08:28:38;;;;;;;11.02;6.70;;;24.00;77.80;;;;;;4995307;28;20434;-73
2022/08/27 08:31:05;;;;;;;11.55;6.43;;;24.00;77.90;;;;;;4995677;28;20032;-74
2022/08/27 08:33:32;;;;;;;10.82;6.10;;;24.00;78.10;;;;;;4995198;28;20045;-73
2022/08/27 08:36:05;;;;;;;21.05;7.22;;;24.00;78.10;;;;;;5011119;28;20120;-73
2022/08/27 08:38:31;;;;;;;12.73;6.32;;;24.00;77.90;;;;;;4990074;28;20041;-72
2022/08/27 08:40:57;;;;;;;17.15;6.72;;;24.00;77.40;;;;;;5000646;28;20026;-74
2022/08/27 08:43:26;;;;;;;13.07;6.57;;;24.00;77.60;;;;;;5005362;28;20018;-74
2022/08/27 08:45:55;;;;;;;11.90;6.97;;;24.00;78.10;;;;;;4992074;28;20030;-73
2022/08/27 08:48:24;;;;;;;11.98;6.53;;;23.90;77.70;;;;;;5008754;28;20501;-71
2022/08/27 08:51:13;;;;;;;10.80;5.85;;;23.90;77.50;;;;;;4992590;28;20446;-71
2022/08/27 08:53:53;;;;;;;10.50;6.55;;;24.00;77.70;;;;;;4993892;28;20037;-72
2022/08/27 08:56:29;;;;;;;13.00;6.32;;;24.00;77.70;;;;;;4992878;28;20068;-71
2022/08/27 08:59:04;;;;;;;11.23;6.85;;;24.00;77.70;;;;;;4992787;28;20026;-69
2022/08/27 09:01:30;;;;;;;13.65;6.53;;;23.90;78.60;;;;;;5010621;28;20025;-71
2022/08/27 09:04:03;;;;;;;13.30;7.03;;;24.00;78.20;;;;;;5009274;28;20029;-71
2022/08/27 09:06:38;;;;;;;12.70;6.60;;;23.90;78.40;;;;;;5012968;28;20030;-79
2022/08/27 09:09:21;;;;;;;14.15;6.72;;;24.00;78.30;;;;;;5010556;28;20037;-71
2022/08/27 09:12:17;;;;;;;14.07;6.63;;;24.00;78.40;;;;;;5006608;28;20033;-70
2022/08/27 09:14:55;;;;;;;12.57;6.60;;;23.90;78.30;;;;;;5009971;28;20044;-69
2022/08/27 09:17:22;;;;;;;11.40;6.72;;;23.90;78.30;;;;;;5008745;28;20021;-69
2022/08/27 09:19:48;;;;;;;10.45;7.07;;;23.80;78.50;;;;;;5007907;28;20548;-69
2022/08/27 09:22:27;;;;;;;7.75;5.72;;;23.80;78.50;;;;;;4992564;28;20048;-70
2022/08/27 09:25:19;;;;;;;15.88;6.65;;;23.80;78.60;;;;;;5007278;28;20088;-69
2022/08/27 09:27:47;;;;;;;14.98;6.53;;;23.70;78.80;;;;;;5008817;28;20095;-68
2022/08/27 09:30:23;;;;;;;11.40;6.13;;;23.80;78.80;;;;;;5009206;28;20118;-69
2022/08/27 09:32:56;;;;;;;19.77;13.50;;;23.80;78.90;;;;;;5009780;28;20037;-75
2022/08/27 09:35:25;;;;;;;16.38;10.23;;;23.90;79.10;;;;;;5010443;28;20109;-75
2022/08/27 09:37:56;;;;;;;15.05;8.55;;;23.80;79.00;;;;;;4989532;28;20044;-74
2022/08/27 09:40:45;;;;;;;17.80;8.10;;;23.90;78.80;;;;;;4992207;28;20037;-75
2022/08/27 09:43:23;;;;;;;14.75;7.80;;;23.80;79.10;;;;;;5006408;28;20033;-74
2022/08/27 09:45:53;;;;;;;15.32;8.20;;;23.90;78.80;;;;;;5008812;28;20029;-73
2022/08/27 09:48:23;;;;;;;13.25;7.32;;;24.00;78.40;;;;;;5010391;28;20382;-75
2022/08/27 09:50:54;;;;;;;23.30;8.13;;;24.00;78.10;;;;;;5010703;28;20489;-75
2022/08/27 09:53:25;;;;;;;14.82;7.75;;;24.10;78.60;;;;;;5012535;28;20101;-74
2022/08/27 09:55:58;;;;;;;16.23;7.88;;;24.20;77.70;;;;;;4977638;28;20508;-72
2022/08/27 09:58:45;;;;;;;27.98;7.55;;;24.20;77.40;;;;;;5011308;28;20417;-73
2022/08/27 10:01:20;;;;;;;17.88;6.68;;;24.20;79.00;;;;;;5012672;28;20032;-75
2022/08/27 10:03:46;;;;;;;16.05;6.00;;;24.20;78.30;;;;;;5012365;28;20482;-75
2022/08/27 10:06:12;;;;;;;12.15;6.30;;;24.30;77.60;;;;;;4995675;28;20033;-75
2022/08/27 10:08:45;;;;;;;14.30;6.22;;;24.30;77.70;;;;;;5012412;28;20033;-75
2022/08/27 10:11:26;;;;;;;16.50;6.60;;;24.30;77.50;;;;;;5011739;28;20037;-75
2022/08/27 10:14:19;;;;;;;12.80;5.95;;;24.30;77.50;;;;;;5011491;28;20109;-76
2022/08/27 10:17:10;;;;;;;12.65;7.05;;;24.30;77.50;;;;;;5012782;28;20120;-76
2022/08/27 10:19:59;;;;;;;13.52;7.05;;;24.30;77.90;;;;;;5013574;28;20026;-75
2022/08/27 10:22:25;;;;;;;12.95;6.03;;;24.30;77.10;;;;;;5011607;28;20034;-73
2022/08/27 10:25:14;;;;;;;14.80;5.93;;;24.30;76.90;;;;;;5011535;28;20092;-74
2022/08/27 10:27:46;;;;;;;13.90;6.68;;;24.40;76.90;;;;;;5011613;28;20109;-73
2022/08/27 10:30:24;;;;;;;14.73;6.45;;;24.40;76.80;;;;;;4993587;28;20034;-74
2022/08/27 10:33:21;;;;;;;15.90;6.68;;;24.40;76.80;;;;;;5011298;28;20040;-74
2022/08/27 10:35:47;;;;;;;15.80;6.45;;;24.40;76.60;;;;;;5011522;28;20116;-74
2022/08/27 10:38:16;;;;;;;18.40;6.75;;;24.40;76.60;;;;;;4994304;28;20148;-73
2022/08/27 10:41:00;;;;;;;24.48;9.18;;;24.40;76.40;;;;;;4993727;28;20474;-74
2022/08/27 10:43:48;;;;;;;25.67;8.20;;;24.40;76.40;;;;;;5011454;28;20025;-73
2022/08/27 10:46:32;;;;;;;23.10;9.77;;;24.40;76.50;;;;;;5011459;28;20030;-74
2022/08/27 10:49:32;;;;;;;24.45;8.82;;;24.40;76.80;;;;;;5010977;28;20030;-74
2022/08/27 10:52:11;;;;;;;21.58;8.68;;;24.40;76.20;;;;;;5011401;28;20112;-74
2022/08/27 10:54:56;;;;;;;24.30;9.50;;;24.40;76.20;;;;;;5011160;28;20058;-73
2022/08/27 10:57:29;;;;;;;27.88;10.23;;;24.40;76.20;;;;;;5015097;28;20036;-74
2022/08/27 11:00:11;;;;;;;24.48;9.52;;;24.40;76.30;;;;;;5014398;28;20120;-74
2022/08/27 11:02:46;;;;;;;24.75;9.93;;;24.40;76.10;;;;;;5014792;28;20030;-74
2022/08/27 11:05:22;;;;;;;27.73;11.82;;;24.40;76.10;;;;;;5014685;28;20030;-73
2022/08/27 11:08:58;;;;;;;28.23;10.88;;;24.40;76.10;;;;;;5014555;28;20553;-75
2022/08/27 11:11:47;;;;;;;28.27;11.00;;;24.40;76.10;;;;;;4843437;29;20044;-75
2022/08/27 11:14:29;;;;;;;32.80;11.57;;;24.40;76.10;;;;;;5009818;28;20041;-75
2022/08/27 11:17:03;;;;;;;32.45;11.60;;;24.40;76.10;;;;;;5014581;28;20064;-75
2022/08/27 11:20:07;;;;;;;31.98;12.30;;;24.40;75.90;;;;;;5013988;28;20498;-75
2022/08/27 11:22:56;;;;;;;29.08;11.32;;;24.40;75.90;;;;;;5014321;28;20022;-75
2022/08/27 11:25:55;;;;;;;32.65;11.75;;;24.40;76.00;;;;;;5013655;28;20065;-75
2022/08/27 11:28:36;;;;;;;29.70;12.65;;;24.40;76.00;;;;;;4993510;28;20383;-75
2022/08/27 11:31:19;;;;;;;35.55;12.80;;;24.40;75.90;;;;;;5014206;28;20034;-75
2022/08/27 11:33:45;;;;;;;31.30;12.52;;;24.40;76.00;;;;;;5014177;28;20430;-75
2022/08/27 11:36:28;;;;;;;31.05;12.32;;;24.40;75.60;;;;;;5014116;28;20218;-75
2022/08/27 11:39:34;;;;;;;30.80;12.65;;;24.50;76.00;;;;;;5013816;28;20029;-75
2022/08/27 11:42:18;;;;;;;30.70;12.45;;;24.50;75.80;;;;;;4976483;28;20034;-75
2022/08/27 11:44:47;;;;;;;32.22;12.60;;;24.40;75.80;;;;;;4996416;28;20026;-75
2022/08/27 11:47:17;;;;;;;30.90;12.77;;;24.50;76.30;;;;;;5013857;28;20033;-75
2022/08/27 11:50:07;;;;;;;29.40;12.32;;;24.50;75.70;;;;;;5013447;28;20486;-75
2022/08/27 11:52:41;;;;;;;;;;;24.50;75.40;;;;;;4996836;28;20350;-75
2022/08/27 11:55:21;;;;;;;31.88;12.07;;;24.50;75.70;;;;;;5013126;28;20011;-75
2022/08/27 11:58:03;;;;;;;34.45;12.85;;;24.50;75.60;;;;;;5013687;28;20064;-75
2022/08/27 12:00:32;;;;;;;29.63;11.85;;;24.50;75.40;;;;;;5013230;28;20041;-75
2022/08/27 12:03:01;;;;;;;31.52;12.25;;;24.50;75.30;;;;;;5014029;28;20055;-75
2022/08/27 12:05:37;;;;;;;28.75;11.52;;;24.50;75.40;;;;;;5013384;28;20029;-75
2022/08/27 12:08:22;;;;;;;26.02;11.48;;;24.50;75.40;;;;;;5013033;28;20227;-75
2022/08/27 12:11:09;;;;;;;32.95;11.88;;;24.50;75.50;;;;;;5013332;28;20105;-75
2022/08/27 12:14:07;;;;;;;28.63;12.18;;;24.50;75.50;;;;;;4995801;28;20456;-75
2022/08/27 12:16:41;;;;;;;30.05;12.32;;;24.50;75.40;;;;;;4973693;28;20042;-75
2022/08/27 12:19:25;;;;;;;31.83;11.60;;;24.50;75.60;;;;;;5012963;28;20033;-75
2022/08/27 12:22:06;;;;;;;28.08;11.73;;;24.50;75.60;;;;;;5013366;28;20041;-75
2022/08/27 12:25:02;;;;;;;25.95;11.40;;;24.50;75.50;;;;;;5013171;28;20066;-75
2022/08/27 12:27:35;;;;;;;29.50;12.10;;;24.50;75.50;;;;;;4992687;28;20394;-76
2022/08/27 12:30:26;;;;;;;25.40;12.00;;;24.50;75.60;;;;;;5013375;28;20036;-75
2022/08/27 12:32:54;;;;;;;24.30;11.18;;;24.50;75.60;;;;;;5013387;28;20041;-76
2022/08/27 12:35:47;;;;;;;26.27;11.38;;;24.50;75.40;;;;;;5013895;28;20418;-76
2022/08/27 12:38:31;;;;;;;25.42;11.20;;;24.50;75.40;;;;;;5013552;28;20112;-76
2022/08/27 12:41:02;;;;;;;26.42;10.65;;;24.50;75.40;;;;;;5013451;28;20083;-75
2022/08/27 12:43:32;;;;;;;28.50;11.70;;;24.50;75.30;;;;;;5013464;28;20075;-75
2022/08/27 12:46:03;;;;;;;26.63;10.68;;;24.50;75.30;;;;;;5013795;28;20104;-76
2022/08/27 12:48:36;;;;;;;28.58;11.93;;;24.50;75.40;;;;;;4995632;28;20041;-76
2022/08/27 12:51:07;;;;;;;25.33;11.63;;;24.50;75.20;;;;;;5012719;28;20030;-75
2022/08/27 12:54:03;;;;;;;25.50;11.02;;;24.50;75.20;;;;;;5012840;28;20026;-75
2022/08/27 12:56:44;;;;;;;27.77;11.93;;;24.50;75.30;;;;;;5047792;22;20405;-78
2022/08/27 12:59:11;;;;;;;25.05;10.95;;;24.50;75.00;;;;;;5036228;28;20036;-78
2022/08/27 13:01:58;;;;;;;29.30;11.10;;;24.50;75.00;;;;;;5057863;28;20035;-78